Terminal Aerodrome Forecast
Issued by NWS

Home | Current Version | Previous Version | Text Only | Print | Product List | Glossary On
Versions: 1 2 3 4 5 6 7 8 9 10 11 12 13 14 15 16
719
FTUS46 KMFR 190549
TAFLMT
TAF
KLMT 190549Z 1906/2006 19011KT 4SM -SHSN BR OVC035
     FM191200 19005KT P6SM -SHSN SCT020 BKN035 OVC050
     FM191800 19006KT P6SM -SHSN BKN035 OVC050
     FM200000 17007KT P6SM OVC050
     FM200500 16010KT P6SM OVC100=

USA.gov is the U.S. government's official web portal to all federal, state and local government web resources and services.